Time;durP1;ratioP1;P1;durP2;ratioP2;P2;SDS_P1;SDS_P2;PMS_P1;PMS_P2;Temp;Humidity;BMP_temperature;BMP_pressure;BME280_temperature;BME280_humidity;BME280_pressure;Samples;Min_cycle;Max_cycle;Signal;HPM_P1;HPM_P2
2021/10/21 00:01:00;;;;;;;1.88;0.85;;;23.80;79.20;;;;;;5062196;28;20043;-74
2021/10/21 00:03:28;;;;;;;2.17;1.00;;;24.20;80.70;;;;;;5065167;28;20027;-69
2021/10/21 00:05:57;;;;;;;3.67;1.65;;;24.60;79.00;;;;;;5064696;28;20013;-69
2021/10/21 00:08:24;;;;;;;2.75;1.00;;;25.00;69.30;;;;;;5063265;28;20020;-69
2021/10/21 00:10:51;;;;;;;1.90;1.00;;;25.10;74.90;;;;;;5063646;28;20024;-67
2021/10/21 00:13:19;;;;;;;2.70;1.20;;;25.20;77.00;;;;;;5058379;28;20044;-69
2021/10/21 00:15:46;;;;;;;4.60;1.20;;;25.30;72.80;;;;;;5056980;28;20035;-69
2021/10/21 00:18:13;;;;;;;3.83;1.30;;;25.70;71.80;;;;;;5058375;28;20028;-68
2021/10/21 00:20:40;;;;;;;2.08;1.00;;;26.20;70.20;;;;;;5060972;28;20021;-68
2021/10/21 00:23:08;;;;;;;8.93;4.75;;;26.40;67.30;;;;;;5059657;28;20025;-66
2021/10/21 00:25:34;;;;;;;4.15;1.38;;;26.40;65.30;;;;;;5062899;28;20017;-67
2021/10/21 00:28:01;;;;;;;3.85;1.52;;;26.50;61.80;;;;;;5067018;28;20013;-67
2021/10/21 00:30:28;;;;;;;2.90;1.15;;;26.20;61.90;;;;;;5064773;28;20463;-67
2021/10/21 00:32:56;;;;;;;3.55;1.30;;;25.80;64.60;;;;;;5064988;28;20112;-72
2021/10/21 00:35:23;;;;;;;2.63;1.25;;;26.20;64.60;;;;;;5069282;28;20495;-70
2021/10/21 00:37:50;;;;;;;4.38;2.33;;;26.40;63.40;;;;;;5061683;28;20096;-70
2021/10/21 00:40:17;;;;;;;6.13;3.22;;;26.60;61.50;;;;;;5063642;28;20108;-74
2021/10/21 00:42:44;;;;;;;1.50;1.05;;;26.30;62.80;;;;;;5062992;28;20348;-69
2021/10/21 00:45:11;;;;;;;4.55;1.35;;;26.00;63.60;;;;;;5057607;28;20518;-69
2021/10/21 00:47:38;;;;;;;2.65;0.85;;;26.20;64.90;;;;;;5059258;28;20467;-73
2021/10/21 00:50:06;;;;;;;2.13;0.95;;;26.70;62.30;;;;;;5056673;28;20104;-70
2021/10/21 00:52:33;;;;;;;4.07;1.20;;;26.90;59.20;;;;;;5097008;22;20483;-69
2021/10/21 00:55:00;;;;;;;2.58;0.90;;;26.90;58.70;;;;;;5046815;28;20372;-66
2021/10/21 00:57:28;;;;;;;4.03;0.98;;;26.80;57.20;;;;;;5045641;28;20545;-73
2021/10/21 00:59:55;;;;;;;1.30;0.82;;;27.00;57.00;;;;;;5043243;28;20017;-73
2021/10/21 01:02:21;;;;;;;2.20;0.98;;;27.00;55.80;;;;;;5043180;28;20055;-73
2021/10/21 01:04:48;;;;;;;2.63;1.45;;;26.60;57.30;;;;;;5046380;28;20495;-68
2021/10/21 01:07:16;;;;;;;5.57;1.20;;;27.00;57.50;;;;;;5046772;28;20027;-72
2021/10/21 01:09:44;;;;;;;1.80;0.98;;;27.60;57.10;;;;;;5043305;28;20037;-69
2021/10/21 01:12:12;;;;;;;0.80;0.57;;;28.00;56.40;;;;;;5040599;28;20479;-68
2021/10/21 01:14:39;;;;;;;3.13;1.15;;;28.00;52.80;;;;;;5041432;28;20035;-72
2021/10/21 01:17:06;;;;;;;1.75;0.95;;;27.50;52.80;;;;;;5043839;28;20025;-66
2021/10/21 01:19:33;;;;;;;1.77;0.80;;;27.00;53.60;;;;;;5046022;28;20036;-67
2021/10/21 01:22:02;;;;;;;2.10;0.90;;;26.40;57.60;;;;;;5051250;28;20039;-68
2021/10/21 01:24:32;;;;;;;2.40;1.00;;;26.10;56.60;;;;;;5044577;28;20049;-72
2021/10/21 01:26:59;;;;;;;2.42;0.73;;;25.90;55.60;;;;;;5045215;28;20262;-71
2021/10/21 01:29:26;;;;;;;3.35;1.00;;;25.50;56.00;;;;;;5044241;28;20028;-70
2021/10/21 01:31:55;;;;;;;4.10;1.15;;;24.90;59.20;;;;;;5046938;28;20031;-68
2021/10/21 01:34:22;;;;;;;1.83;0.98;;;24.60;58.80;;;;;;5045054;28;20040;-71
2021/10/21 01:36:54;;;;;;;1.27;0.70;;;24.40;58.80;;;;;;5046261;28;20029;-68
2021/10/21 01:39:22;;;;;;;0.68;0.60;;;24.50;59.50;;;;;;5047035;28;20559;-69
2021/10/21 01:41:50;;;;;;;1.80;1.00;;;24.50;62.20;;;;;;5047185;28;20025;-69
2021/10/21 01:44:17;;;;;;;1.88;0.93;;;24.80;60.40;;;;;;5047124;28;20013;-70
2021/10/21 01:46:44;;;;;;;1.13;0.90;;;24.90;57.20;;;;;;5047122;28;20132;-68
2021/10/21 01:49:11;;;;;;;1.25;0.70;;;24.80;57.40;;;;;;5044206;28;20021;-69
2021/10/21 01:51:38;;;;;;;1.77;0.98;;;24.80;59.60;;;;;;5044877;28;20096;-69
2021/10/21 01:54:06;;;;;;;1.98;0.98;;;24.90;60.40;;;;;;5046775;28;20053;-72
2021/10/21 01:56:33;;;;;;;5.20;1.55;;;25.00;63.80;;;;;;5044621;28;20040;-67
2021/10/21 01:59:00;;;;;;;3.95;1.15;;;24.90;62.00;;;;;;5046331;28;20041;-72
2021/10/21 02:01:27;;;;;;;2.35;1.00;;;24.90;59.90;;;;;;5044931;28;20035;-73
2021/10/21 02:03:54;;;;;;;2.85;1.10;;;24.90;59.60;;;;;;5044467;28;20025;-65
2021/10/21 02:06:23;;;;;;;3.10;1.02;;;24.70;62.80;;;;;;5047881;28;20021;-66
2021/10/21 02:08:51;;;;;;;5.63;1.30;;;24.40;66.20;;;;;;5048825;28;20383;-65
2021/10/21 02:11:17;;;;;;;3.67;1.70;;;24.40;67.80;;;;;;5051813;28;20037;-72
2021/10/21 02:13:44;;;;;;;3.72;1.40;;;24.10;70.30;;;;;;5044145;28;20491;-73
2021/10/21 02:16:12;;;;;;;3.67;1.55;;;23.80;72.60;;;;;;5049993;28;20056;-65
2021/10/21 02:18:39;;;;;;;3.33;1.52;;;23.60;74.10;;;;;;5048021;28;20227;-72
2021/10/21 02:21:06;;;;;;;3.35;2.72;;;23.60;74.70;;;;;;5045262;28;20110;-72
2021/10/21 02:23:32;;;;;;;2.97;1.30;;;23.60;75.50;;;;;;5046707;28;20020;-68
2021/10/21 02:26:00;;;;;;;3.17;1.40;;;23.80;74.70;;;;;;5044597;28;20096;-66
2021/10/21 02:28:26;;;;;;;2.85;1.20;;;24.00;73.00;;;;;;5046615;28;20124;-73
2021/10/21 02:30:53;;;;;;;3.75;1.58;;;23.90;73.50;;;;;;5044156;28;20028;-73
2021/10/21 02:33:20;;;;;;;7.38;1.63;;;24.00;74.20;;;;;;5049437;28;20480;-66
2021/10/21 02:35:47;;;;;;;3.25;1.33;;;24.20;72.10;;;;;;5052910;28;20013;-67
2021/10/21 02:38:15;;;;;;;3.92;1.40;;;24.20;71.70;;;;;;5053352;28;20020;-72
2021/10/21 02:40:42;;;;;;;3.92;1.33;;;24.10;72.10;;;;;;5053136;28;20096;-66
2021/10/21 02:43:10;;;;;;;2.92;1.58;;;23.90;72.30;;;;;;5053620;28;20088;-71
2021/10/21 02:45:38;;;;;;;2.40;0.77;;;23.60;74.30;;;;;;5047929;28;20364;-66
2021/10/21 02:48:06;;;;;;;4.55;2.00;;;23.50;73.90;;;;;;5052693;28;20018;-66
2021/10/21 02:50:33;;;;;;;5.35;1.30;;;23.40;74.10;;;;;;5051415;28;20083;-68
2021/10/21 02:53:00;;;;;;;1.65;1.25;;;23.30;73.60;;;;;;5052828;28;20524;-68
2021/10/21 02:55:27;;;;;;;6.72;2.75;;;23.20;75.40;;;;;;5053412;28;20013;-70
2021/10/21 02:57:54;;;;;;;4.05;2.30;;;23.10;77.80;;;;;;5053028;28;20356;-68
2021/10/21 03:00:21;;;;;;;2.30;1.55;;;23.00;77.30;;;;;;5053235;28;20418;-69
2021/10/21 03:02:48;;;;;;;1.20;0.70;;;22.90;77.80;;;;;;4352638;28;10000599;-68
2021/10/21 03:05:15;;;;;;;3.35;1.05;;;22.80;74.00;;;;;;5046783;28;20270;-69
2021/10/21 03:07:42;;;;;;;8.35;6.18;;;22.90;75.20;;;;;;5049577;28;20053;-71
2021/10/21 03:10:09;;;;;;;5.60;2.90;;;23.00;75.10;;;;;;5048268;28;20080;-70
2021/10/21 03:12:36;;;;;;;3.15;2.17;;;23.00;75.20;;;;;;5048016;28;20386;-71
2021/10/21 03:15:04;;;;;;;2.30;1.10;;;23.10;74.20;;;;;;5049279;28;20020;-70
2021/10/21 03:17:31;;;;;;;2.33;1.33;;;23.20;72.30;;;;;;5049908;28;20032;-71
2021/10/21 03:19:58;;;;;;;2.45;1.02;;;23.20;73.50;;;;;;5049135;28;20029;-65
2021/10/21 03:22:25;;;;;;;3.00;0.98;;;23.30;70.80;;;;;;5042835;28;20025;-68
2021/10/21 03:24:52;;;;;;;3.42;0.85;;;23.30;70.50;;;;;;5049227;28;20139;-72
2021/10/21 03:27:19;;;;;;;3.20;1.38;;;23.50;72.60;;;;;;5047802;28;20475;-64
2021/10/21 03:29:46;;;;;;;1.38;0.93;;;23.80;70.20;;;;;;5048892;28;20036;-64
2021/10/21 03:32:13;;;;;;;3.25;0.95;;;24.10;68.60;;;;;;5047581;28;20025;-70
2021/10/21 03:34:40;;;;;;;2.53;1.00;;;24.30;66.50;;;;;;5045513;28;20028;-65
2021/10/21 03:37:07;;;;;;;1.27;0.80;;;24.60;67.50;;;;;;5048828;28;20420;-73
2021/10/21 03:39:35;;;;;;;3.58;0.80;;;24.80;65.30;;;;;;5046481;28;20005;-69
2021/10/21 03:42:02;;;;;;;3.80;1.00;;;25.10;62.40;;;;;;5043923;28;20025;-71
2021/10/21 03:44:29;;;;;;;3.28;1.10;;;25.10;63.80;;;;;;5043645;28;20503;-67
2021/10/21 03:46:56;;;;;;;2.15;0.90;;;24.90;63.00;;;;;;5061372;28;20515;-72
2021/10/21 03:49:23;;;;;;;1.65;1.40;;;24.80;65.10;;;;;;5044977;28;20027;-71
2021/10/21 03:51:50;;;;;;;1.63;1.10;;;24.80;64.80;;;;;;5045699;28;20490;-72
2021/10/21 03:54:17;;;;;;;1.83;1.02;;;25.00;65.60;;;;;;5044091;28;20041;-69
2021/10/21 03:56:44;;;;;;;1.80;1.15;;;25.30;63.60;;;;;;5043265;28;20025;-74
2021/10/21 03:59:11;;;;;;;1.95;0.80;;;25.40;62.20;;;;;;5043408;28;20059;-72
2021/10/21 04:01:38;;;;;;;2.53;0.90;;;25.60;59.30;;;;;;5047914;28;20052;-72
2021/10/21 04:04:05;;;;;;;2.63;0.80;;;25.50;60.90;;;;;;5048253;28;20868;-73
2021/10/21 04:06:32;;;;;;;1.15;0.70;;;25.60;60.30;;;;;;5048111;28;20087;-70
2021/10/21 04:08:59;;;;;;;1.27;0.88;;;25.40;61.00;;;;;;5047002;28;20286;-73
2021/10/21 04:11:26;;;;;;;3.35;0.98;;;25.30;59.40;;;;;;5047494;28;20029;-72
2021/10/21 04:13:53;;;;;;;4.22;1.10;;;25.20;61.90;;;;;;5046393;28;20033;-73
2021/10/21 04:16:20;;;;;;;1.75;0.90;;;25.00;63.10;;;;;;5047171;28;20079;-70
2021/10/21 04:18:47;;;;;;;8.77;6.57;;;24.90;62.90;;;;;;5040984;28;20349;-74
2021/10/21 04:21:14;;;;;;;2.47;1.67;;;24.80;64.70;;;;;;5047439;28;20475;-72
2021/10/21 04:23:42;;;;;;;1.83;0.95;;;24.70;62.80;;;;;;5044677;28;20441;-68
2021/10/21 04:26:09;;;;;;;2.38;1.00;;;24.60;65.00;;;;;;5047593;28;20024;-72
2021/10/21 04:28:36;;;;;;;1.60;0.95;;;24.60;61.50;;;;;;5043747;28;20020;-71
2021/10/21 04:31:03;;;;;;;2.78;1.05;;;24.50;63.70;;;;;;5047474;28;20020;-73
2021/10/21 04:33:31;;;;;;;2.33;1.05;;;24.50;63.20;;;;;;5043242;28;20124;-68
2021/10/21 04:35:58;;;;;;;3.60;1.35;;;24.30;60.80;;;;;;5045502;28;20036;-71
2021/10/21 04:38:25;;;;;;;1.80;0.98;;;24.10;62.30;;;;;;5040253;28;20052;-71
2021/10/21 04:40:52;;;;;;;1.55;1.08;;;24.20;63.60;;;;;;5048523;28;20483;-76
2021/10/21 04:43:19;;;;;;;1.40;0.82;;;24.30;61.10;;;;;;5041977;28;20029;-70
2021/10/21 04:45:46;;;;;;;4.05;0.93;;;24.60;61.20;;;;;;5046235;28;20465;-73
2021/10/21 04:48:14;;;;;;;1.83;1.35;;;25.20;57.70;;;;;;5049320;28;20114;-73
2021/10/21 04:50:41;;;;;;;1.13;1.00;;;25.80;60.00;;;;;;5049896;28;20025;-75
2021/10/21 04:53:09;;;;;;;1.75;1.00;;;26.30;59.30;;;;;;5047527;28;20127;-69
2021/10/21 04:55:36;;;;;;;1.90;0.90;;;26.90;58.30;;;;;;5048133;28;20501;-71
2021/10/21 04:58:04;;;;;;;1.85;0.90;;;27.30;52.60;;;;;;5047967;28;20064;-74
2021/10/21 05:00:34;;;;;;;2.63;1.10;;;27.50;53.50;;;;;;5047755;28;20350;-69
2021/10/21 05:03:12;;;;;;;1.50;0.80;;;27.30;51.70;;;;;;5044190;28;20044;-70
2021/10/21 05:05:43;;;;;;;2.45;1.15;;;27.30;52.20;;;;;;5040614;28;20021;-69
2021/10/21 05:08:10;;;;;;;1.88;1.25;;;27.60;53.50;;;;;;5047360;28;20181;-73
2021/10/21 05:10:37;;;;;;;1.17;0.80;;;27.80;52.90;;;;;;5047563;28;20270;-68
2021/10/21 05:13:04;;;;;;;1.27;0.70;;;27.90;52.20;;;;;;5047692;28;20025;-67
2021/10/21 05:15:31;;;;;;;2.95;1.00;;;28.20;53.60;;;;;;5043984;28;21003;-67
2021/10/21 05:17:58;;;;;;;2.38;1.05;;;28.20;53.00;;;;;;5039389;28;20124;-76
2021/10/21 05:20:25;;;;;;;3.63;1.23;;;28.40;51.00;;;;;;5047807;28;20021;-75
2021/10/21 05:22:52;;;;;;;3.17;1.20;;;28.70;50.20;;;;;;5044725;28;20032;-73
2021/10/21 05:25:19;;;;;;;2.35;0.90;;;28.50;50.00;;;;;;5045916;28;20085;-69
2021/10/21 05:27:47;;;;;;;1.38;0.88;;;28.30;51.20;;;;;;5048154;28;20064;-76
2021/10/21 05:30:14;;;;;;;2.88;1.27;;;28.00;52.50;;;;;;5047682;28;20120;-71
2021/10/21 05:32:41;;;;;;;1.98;0.90;;;27.60;51.20;;;;;;5043854;28;20044;-74
2021/10/21 05:35:09;;;;;;;1.42;1.00;;;27.80;51.50;;;;;;5041895;28;20032;-71
2021/10/21 05:37:36;;;;;;;1.60;0.90;;;27.60;51.60;;;;;;5045318;28;20107;-72
2021/10/21 05:40:04;;;;;;;1.65;0.90;;;27.30;52.00;;;;;;5038787;28;20329;-71
2021/10/21 05:42:31;;;;;;;2.90;1.25;;;26.80;52.40;;;;;;5046315;28;20024;-74
2021/10/21 05:44:59;;;;;;;2.65;1.33;;;26.50;53.40;;;;;;5046458;28;20029;-72
2021/10/21 05:47:26;;;;;;;1.77;0.88;;;26.20;53.70;;;;;;5047095;28;20033;-68
2021/10/21 05:49:54;;;;;;;2.28;0.95;;;26.20;55.50;;;;;;5043850;28;20021;-65
2021/10/21 05:52:24;;;;;;;3.08;1.70;;;26.60;53.20;;;;;;5046172;28;20139;-72
2021/10/21 05:54:54;;;;;;;3.20;1.77;;;26.80;54.00;;;;;;5046236;28;20045;-70
2021/10/21 05:57:21;;;;;;;2.15;0.90;;;27.20;53.40;;;;;;5044765;28;20029;-66
2021/10/21 05:59:48;;;;;;;6.03;3.13;;;27.40;51.10;;;;;;5044698;28;20082;-66
2021/10/21 06:02:15;;;;;;;2.08;0.60;;;27.20;53.20;;;;;;5043649;28;20086;-66
2021/10/21 06:04:42;;;;;;;3.10;1.20;;;27.00;52.50;;;;;;5044517;28;20017;-73
2021/10/21 06:07:09;;;;;;;1.73;0.95;;;27.10;53.50;;;;;;5045477;28;20029;-70
2021/10/21 06:09:36;;;;;;;2.38;1.25;;;27.00;53.60;;;;;;5044790;28;20036;-68
2021/10/21 06:12:04;;;;;;;3.25;1.08;;;27.00;52.90;;;;;;5045190;28;20037;-63
2021/10/21 06:14:31;;;;;;;6.03;1.30;;;26.80;52.70;;;;;;5044080;28;20033;-69
2021/10/21 06:16:59;;;;;;;2.47;0.80;;;26.30;54.00;;;;;;5045688;28;20041;-69
2021/10/21 06:19:26;;;;;;;3.22;0.90;;;26.10;54.00;;;;;;5045020;28;20044;-64
2021/10/21 06:22:08;;;;;;;2.95;0.85;;;26.30;54.20;;;;;;5044791;28;20028;-70
2021/10/21 06:24:35;;;;;;;2.47;0.95;;;26.50;54.60;;;;;;5044950;28;20029;-65
2021/10/21 06:27:02;;;;;;;2.38;0.93;;;26.00;55.00;;;;;;5043397;28;20341;-63
2021/10/21 06:29:29;;;;;;;2.30;0.85;;;25.20;56.40;;;;;;5043864;28;20064;-69
2021/10/21 06:31:57;;;;;;;2.03;0.90;;;24.70;57.80;;;;;;5043541;28;20082;-63
2021/10/21 06:34:24;;;;;;;1.88;1.02;;;24.50;59.70;;;;;;5040289;28;20029;-63
2021/10/21 06:36:52;;;;;;;2.60;1.00;;;24.40;59.50;;;;;;5045503;28;20033;-65
2021/10/21 06:39:19;;;;;;;3.13;1.00;;;24.30;59.30;;;;;;5049208;28;20430;-71
2021/10/21 06:41:46;;;;;;;3.65;1.10;;;24.10;61.10;;;;;;5046835;28;20060;-65
2021/10/21 06:44:12;;;;;;;1.65;1.38;;;24.20;59.40;;;;;;4696233;28;9999653;-68
2021/10/21 06:46:39;;;;;;;7.45;6.18;;;24.40;59.90;;;;;;5041717;28;20029;-69
2021/10/21 06:49:06;;;;;;;2.17;0.90;;;24.80;60.60;;;;;;5045616;28;20549;-73
2021/10/21 06:51:33;;;;;;;4.10;1.60;;;25.50;57.90;;;;;;5044429;28;20094;-68
2021/10/21 06:54:00;;;;;;;1.95;1.27;;;26.40;55.50;;;;;;5046405;28;20080;-70
2021/10/21 06:56:27;;;;;;;2.83;1.38;;;26.70;55.70;;;;;;5045746;28;20461;-69
2021/10/21 06:58:55;;;;;;;5.20;1.20;;;27.10;54.10;;;;;;5046838;28;20021;-69
2021/10/21 07:01:22;;;;;;;5.05;1.13;;;27.40;54.00;;;;;;5043121;28;20357;-66
2021/10/21 07:03:49;;;;;;;2.85;0.77;;;27.20;54.30;;;;;;5043839;28;20017;-70
2021/10/21 07:06:16;;;;;;;2.80;0.70;;;26.40;55.10;;;;;;5040947;28;20436;-73
2021/10/21 07:08:42;;;;;;;3.58;1.02;;;26.30;55.10;;;;;;5044195;28;20029;-67
2021/10/21 07:11:09;;;;;;;2.05;1.10;;;26.20;57.00;;;;;;5045227;28;20458;-72
2021/10/21 07:13:37;;;;;;;1.67;0.77;;;26.10;55.70;;;;;;5045716;28;20029;-66
2021/10/21 07:16:06;;;;;;;1.55;0.80;;;25.30;57.40;;;;;;5043386;28;20116;-66
2021/10/21 07:18:33;;;;;;;1.50;0.90;;;24.60;59.90;;;;;;5045184;28;20025;-69
2021/10/21 07:21:00;;;;;;;2.70;0.70;;;23.90;62.70;;;;;;5048746;28;20457;-66
2021/10/21 07:23:27;;;;;;;2.38;1.00;;;23.20;64.50;;;;;;5043495;28;20488;-68
2021/10/21 07:25:54;;;;;;;3.78;0.82;;;22.80;67.10;;;;;;5045696;28;20023;-68
2021/10/21 07:28:22;;;;;;;2.35;0.95;;;22.50;70.10;;;;;;5043522;28;20017;-71
2021/10/21 07:31:13;;;;;;;2.05;0.70;;;22.40;70.80;;;;;;5048122;28;20040;-68
2021/10/21 07:33:40;;;;;;;2.33;1.08;;;22.20;71.20;;;;;;5048000;28;20024;-70
2021/10/21 07:36:07;;;;;;;1.20;0.85;;;22.00;72.60;;;;;;5045277;28;20033;-70
2021/10/21 07:38:34;;;;;;;1.77;0.80;;;21.80;74.30;;;;;;5049101;28;20534;-71
2021/10/21 07:41:01;;;;;;;2.08;1.10;;;21.50;75.00;;;;;;5045135;28;20612;-68
2021/10/21 07:43:28;;;;;;;5.65;2.90;;;21.30;76.20;;;;;;5047736;28;20048;-71
2021/10/21 07:45:56;;;;;;;3.13;2.15;;;21.10;78.00;;;;;;5049698;28;20025;-72
2021/10/21 07:48:23;;;;;;;2.65;1.10;;;21.00;80.20;;;;;;5038502;28;20025;-68
2021/10/21 07:50:50;;;;;;;3.17;0.90;;;20.90;80.70;;;;;;5045441;28;20083;-68
2021/10/21 07:53:17;;;;;;;2.83;1.20;;;20.70;81.10;;;;;;5043051;28;20052;-72
2021/10/21 07:55:44;;;;;;;2.95;1.10;;;20.50;82.40;;;;;;5044278;28;20044;-66
2021/10/21 07:58:11;;;;;;;3.55;1.25;;;20.50;84.80;;;;;;5042293;28;20270;-67
2021/10/21 08:00:38;;;;;;;1.95;1.10;;;20.50;83.80;;;;;;5041903;28;20037;-70
2021/10/21 08:03:05;;;;;;;1.83;0.82;;;20.40;83.80;;;;;;5040813;28;20526;-71
2021/10/21 08:05:33;;;;;;;1.30;0.52;;;20.30;84.40;;;;;;5042948;28;20636;-67
2021/10/21 08:08:04;;;;;;;3.92;0.90;;;20.20;85.60;;;;;;5041115;28;20031;-67
2021/10/21 08:10:31;;;;;;;1.27;0.90;;;20.10;86.90;;;;;;5034592;28;20067;-67
2021/10/21 08:12:59;;;;;;;2.28;0.88;;;20.00;88.70;;;;;;5041929;28;20412;-68
2021/10/21 08:15:27;;;;;;;3.35;1.17;;;20.00;90.50;;;;;;5038271;28;20612;-63
2021/10/21 08:17:54;;;;;;;3.30;1.10;;;19.90;90.80;;;;;;5040189;28;20516;-64
2021/10/21 08:20:27;;;;;;;2.28;1.13;;;19.80;91.60;;;;;;5040490;28;20124;-66
2021/10/21 08:22:54;;;;;;;3.28;1.00;;;19.70;92.60;;;;;;5039943;28;20031;-67
2021/10/21 08:25:25;;;;;;;1.60;1.15;;;19.70;93.20;;;;;;5044136;28;20025;-69
2021/10/21 08:27:52;;;;;;;1.77;0.98;;;19.70;93.70;;;;;;5044470;28;20035;-63
2021/10/21 08:30:23;;;;;;;2.05;1.10;;;19.50;94.10;;;;;;5043384;28;20036;-63
2021/10/21 08:32:51;;;;;;;3.40;1.38;;;19.50;94.60;;;;;;5042765;28;20072;-64
2021/10/21 08:35:18;;;;;;;2.92;1.13;;;19.50;95.10;;;;;;5038466;28;20083;-67
2021/10/21 08:37:45;;;;;;;3.28;1.30;;;19.40;95.90;;;;;;5040270;28;20036;-69
2021/10/21 08:40:14;;;;;;;2.80;1.08;;;19.40;96.20;;;;;;5038789;28;20029;-69
2021/10/21 08:42:41;;;;;;;5.82;2.72;;;19.30;96.70;;;;;;5037846;28;20065;-69
2021/10/21 08:45:08;;;;;;;5.60;2.42;;;19.20;97.30;;;;;;5039146;28;20033;-71
2021/10/21 08:47:45;;;;;;;6.30;4.03;;;19.00;97.80;;;;;;5035257;28;20353;-66
2021/10/21 08:50:13;;;;;;;3.42;1.58;;;18.90;98.50;;;;;;5043475;28;20029;-68
2021/10/21 08:52:41;;;;;;;2.30;1.30;;;18.90;98.80;;;;;;5039273;28;20033;-66
2021/10/21 08:55:08;;;;;;;2.72;1.45;;;18.90;98.90;;;;;;5038695;28;20529;-68
2021/10/21 08:57:35;;;;;;;4.40;1.40;;;18.60;99.70;;;;;;5040682;28;20495;-69
2021/10/21 09:00:04;;;;;;;2.97;1.10;;;18.80;99.60;;;;;;5040532;28;21260;-68
2021/10/21 09:02:47;;;;;;;2.38;1.00;;;18.80;99.80;;;;;;5039174;28;20033;-64
2021/10/21 09:05:27;;;;;;;;;;;18.80;99.80;;;;;;5040780;28;20436;-67
2021/10/21 09:08:07;;;;;;;2.42;1.10;;;18.60;99.90;;;;;;5037996;28;19916;-68
2021/10/21 09:10:42;;;;;;;3.65;1.65;;;18.60;99.90;;;;;;5039460;28;20025;-70
2021/10/21 09:13:19;;;;;;;3.78;1.50;;;18.70;99.90;;;;;;5039669;28;20096;-71
2021/10/21 09:15:54;;;;;;;2.85;1.15;;;18.80;99.90;;;;;;5042545;28;20033;-70
2021/10/21 09:18:22;;;;;;;5.30;1.80;;;18.70;99.90;;;;;;5037298;28;20523;-68
2021/10/21 09:20:49;;;;;;;3.42;1.67;;;18.70;99.90;;;;;;5037811;28;20101;-66
2021/10/21 09:23:25;;;;;;;1.83;1.17;;;18.60;99.90;;;;;;5037984;28;20033;-70
2021/10/21 09:25:52;;;;;;;2.60;1.00;;;18.50;99.90;;;;;;5037198;28;20156;-72
2021/10/21 09:28:24;;;;;;;3.25;0.95;;;18.50;99.90;;;;;;5036187;28;20047;-69
2021/10/21 09:30:55;;;;;;;2.78;0.93;;;18.40;99.90;;;;;;5036454;28;20025;-71
2021/10/21 09:33:23;;;;;;;2.75;1.15;;;18.20;99.90;;;;;;5033833;28;20033;-71
2021/10/21 09:35:55;;;;;;;3.17;1.00;;;17.90;99.90;;;;;;5036636;28;20744;-66
2021/10/21 09:38:25;;;;;;;;;;;17.80;99.90;;;;;;5035691;28;20024;-68
2021/10/21 09:40:53;;;;;;;3.22;0.95;;;17.70;99.90;;;;;;5034007;28;20388;-68
2021/10/21 09:43:31;;;;;;;2.10;1.05;;;17.50;99.90;;;;;;5034575;28;20437;-67
2021/10/21 09:45:59;;;;;;;3.53;1.40;;;17.60;99.90;;;;;;5035743;28;20104;-69
2021/10/21 09:48:26;;;;;;;1.85;1.38;;;17.70;99.90;;;;;;5040712;28;20289;-68
2021/10/21 09:50:53;;;;;;;3.08;1.00;;;17.90;99.90;;;;;;5036297;28;20053;-67
2021/10/21 09:53:22;;;;;;;2.00;1.30;;;18.10;99.90;;;;;;5034422;28;20049;-69
2021/10/21 09:56:08;;;;;;;3.53;1.30;;;18.10;99.90;;;;;;5037956;28;20033;-70
2021/10/21 09:58:42;;;;;;;4.90;1.52;;;18.00;99.90;;;;;;5038847;28;21156;-69
2021/10/21 10:01:17;;;;;;;4.40;1.60;;;18.00;99.90;;;;;;5035389;28;20024;-68
2021/10/21 10:03:45;;;;;;;2.92;1.45;;;17.90;99.90;;;;;;5034983;28;20298;-68
2021/10/21 10:06:18;;;;;;;3.78;1.70;;;17.70;99.90;;;;;;5037677;28;20028;-68
2021/10/21 10:08:47;;;;;;;;;;;17.50;99.90;;;;;;5039541;28;20026;-70
2021/10/21 10:11:21;;;;;;;2.95;1.90;;;17.30;99.90;;;;;;5040076;28;19913;-69
2021/10/21 10:13:50;;;;;;;3.90;2.08;;;17.40;99.90;;;;;;5043600;28;20025;-67
2021/10/21 10:16:18;;;;;;;3.15;1.88;;;17.20;99.90;;;;;;5043244;28;20029;-72
2021/10/21 10:18:46;;;;;;;2.95;1.60;;;17.20;99.90;;;;;;5044365;28;20452;-68
2021/10/21 10:21:43;;;;;;;2.92;1.33;;;17.20;99.90;;;;;;5042749;28;20025;-68
2021/10/21 10:24:13;;;;;;;4.05;1.60;;;17.10;99.90;;;;;;5032382;28;20108;-69
2021/10/21 10:26:43;;;;;;;3.25;1.60;;;17.00;99.90;;;;;;5038435;28;20410;-72
2021/10/21 10:29:15;;;;;;;3.80;1.55;;;16.90;99.90;;;;;;5043768;28;20025;-70
2021/10/21 10:31:48;;;;;;;3.88;1.90;;;16.90;99.90;;;;;;5042561;28;20033;-72
2021/10/21 10:34:33;;;;;;;;;;;16.70;99.90;;;;;;5042001;28;20116;-66
2021/10/21 10:37:21;;;;;;;5.00;2.95;;;16.50;99.90;;;;;;5049983;28;19905;-69
2021/10/21 10:40:00;;;;;;;6.13;1.67;;;16.40;99.90;;;;;;5045864;28;20025;-71
2021/10/21 10:42:31;;;;;;;8.55;1.73;;;16.30;99.90;;;;;;5041682;28;20031;-70
2021/10/21 10:44:58;;;;;;;3.20;1.45;;;16.30;99.90;;;;;;5047824;28;20052;-69
2021/10/21 10:47:47;;;;;;;3.92;1.63;;;16.40;99.90;;;;;;5047562;28;20029;-69
2021/10/21 10:50:26;;;;;;;4.28;1.77;;;16.40;99.90;;;;;;5029932;28;20436;-70
2021/10/21 10:52:56;;;;;;;5.35;1.83;;;16.50;99.90;;;;;;5043536;28;20462;-68
2021/10/21 10:55:52;;;;;;;3.95;2.05;;;16.60;99.90;;;;;;5045410;28;20029;-69
2021/10/21 10:58:27;;;;;;;4.45;1.80;;;16.70;99.90;;;;;;5046417;28;20017;-70
2021/10/21 11:00:59;;;;;;;7.28;2.40;;;16.80;99.90;;;;;;5046804;28;20036;-69
2021/10/21 11:03:32;;;;;;;3.05;1.83;;;16.80;99.90;;;;;;5045873;28;20143;-70
2021/10/21 11:06:24;;;;;;;2.35;1.33;;;16.80;99.90;;;;;;5047031;28;20139;-68
2021/10/21 11:09:04;;;;;;;5.15;2.03;;;16.70;99.90;;;;;;5046990;28;20044;-71
2021/10/21 11:11:51;;;;;;;4.38;1.60;;;16.40;99.90;;;;;;5043605;28;20029;-71
2021/10/21 11:14:39;;;;;;;3.55;1.92;;;16.30;99.90;;;;;;5050191;28;20032;-68
2021/10/21 11:17:09;;;;;;;6.13;1.88;;;16.20;99.90;;;;;;5044691;28;20503;-70
2021/10/21 11:19:48;;;;;;;5.38;2.00;;;16.20;99.90;;;;;;5050720;28;20017;-71
2021/10/21 11:22:20;;;;;;;3.75;1.88;;;16.10;99.90;;;;;;5045981;28;20027;-70
2021/10/21 11:24:58;;;;;;;4.53;2.47;;;16.10;99.90;;;;;;5045736;28;20036;-72
2021/10/21 11:27:29;;;;;;;6.82;2.30;;;16.00;99.90;;;;;;5045174;28;20733;-73
2021/10/21 11:30:18;;;;;;;4.00;1.95;;;16.00;99.90;;;;;;5044714;28;20025;-70
2021/10/21 11:32:47;;;;;;;4.85;1.95;;;15.90;99.90;;;;;;5045166;28;20033;-70
2021/10/21 11:35:18;;;;;;;5.65;2.13;;;15.80;99.90;;;;;;5044741;28;20629;-67
2021/10/21 11:37:53;;;;;;;3.58;1.88;;;15.80;99.90;;;;;;5043741;28;20032;-69
2021/10/21 11:40:35;;;;;;;4.38;2.05;;;15.90;99.90;;;;;;5045271;28;20033;-70
2021/10/21 11:43:05;;;;;;;6.50;2.45;;;15.80;99.90;;;;;;5044896;28;20380;-70
2021/10/21 11:45:40;;;;;;;4.10;1.98;;;15.80;99.90;;;;;;5045272;28;20048;-69
2021/10/21 11:48:13;;;;;;;4.57;2.22;;;15.70;99.90;;;;;;5043337;28;20021;-73
2021/10/21 11:50:39;;;;;;;;;;;15.80;99.90;;;;;;5043997;28;20049;-70
2021/10/21 11:53:10;;;;;;;5.10;1.80;;;15.70;99.90;;;;;;5041732;28;19917;-71
2021/10/21 11:55:39;;;;;;;4.30;2.20;;;15.70;99.90;;;;;;5043535;28;20709;-69
2021/10/21 11:58:25;;;;;;;7.20;2.30;;;15.60;99.90;;;;;;5042886;28;20502;-69
2021/10/21 12:01:04;;;;;;;3.95;2.00;;;15.60;99.90;;;;;;5044945;28;20111;-72
2021/10/21 12:03:31;;;;;;;4.05;1.88;;;15.60;99.90;;;;;;5043888;28;20361;-73
2021/10/21 12:05:59;;;;;;;5.90;2.25;;;15.60;99.90;;;;;;5043690;28;20106;-70
2021/10/21 12:08:26;;;;;;;13.02;3.00;;;15.70;99.90;;;;;;5043353;28;20025;-70
2021/10/21 12:10:59;;;;;;;11.23;2.60;;;15.70;99.90;;;;;;5044375;28;20025;-68
2021/10/21 12:13:30;;;;;;;16.08;3.65;;;15.70;99.90;;;;;;5042090;28;20090;-68
2021/10/21 12:16:00;;;;;;;10.68;2.58;;;15.70;99.90;;;;;;5045440;28;20029;-68
2021/10/21 12:18:31;;;;;;;12.35;2.63;;;15.60;99.90;;;;;;5044910;28;20047;-70
2021/10/21 12:21:08;;;;;;;9.18;2.10;;;15.50;99.90;;;;;;5044275;28;20029;-69
2021/10/21 12:23:47;;;;;;;7.63;2.20;;;15.60;99.90;;;;;;5043119;28;20033;-68
2021/10/21 12:26:27;;;;;;;7.78;2.10;;;15.50;99.90;;;;;;5046112;28;20040;-70
2021/10/21 12:29:00;;;;;;;9.68;2.53;;;15.50;99.90;;;;;;5045732;28;20021;-71
2021/10/21 12:31:36;;;;;;;4.45;2.40;;;15.40;99.90;;;;;;5044197;28;20490;-70
2021/10/21 12:34:07;;;;;;;5.35;2.60;;;15.40;99.90;;;;;;5044656;28;20025;-71
2021/10/21 12:36:41;;;;;;;5.25;2.45;;;15.40;99.90;;;;;;5043179;28;20025;-72
2021/10/21 12:39:10;;;;;;;5.97;1.98;;;15.30;99.90;;;;;;5042560;28;20139;-73
2021/10/21 12:41:59;;;;;;;4.45;1.95;;;15.30;99.90;;;;;;5043799;28;20111;-71
2021/10/21 12:44:45;;;;;;;5.72;1.95;;;15.30;99.90;;;;;;5042041;28;20036;-74
2021/10/21 12:47:28;;;;;;;4.32;2.08;;;15.30;99.90;;;;;;5044789;28;20021;-73
2021/10/21 12:50:06;;;;;;;6.70;2.58;;;15.30;99.90;;;;;;5044138;28;20104;-71
2021/10/21 12:52:40;;;;;;;6.53;2.30;;;15.20;99.90;;;;;;5048817;22;20037;-71
2021/10/21 12:55:19;;;;;;;11.45;4.50;;;15.20;99.90;;;;;;5022900;28;21251;-72
2021/10/21 12:58:01;;;;;;;21.38;5.53;;;15.20;99.90;;;;;;5024155;28;21165;-69
2021/10/21 13:00:33;;;;;;;11.20;4.63;;;15.20;99.90;;;;;;5021707;28;20029;-72